Seboeis Plt, Maine
Current Conditions -  °F | °C
As of 11:53 PM on Tuesday 25 Nov 2014 (Local Time) from KBGR Reporting Station
Broken Clouds Broken Clouds  
Wind Chill: 40°   Ceiling: 20000
Heat Index: 43°   Visibility: 10mi
Dew Point: 25°   Wind: 5mph
Humidity: 49%   Direction: 220°SW
Pressure: 30.03"   Gusts: NA
Location:  45.1976°N, 68.703°W
Report Text: KBGR 260453Z 22004KT 10SM FEW060 BKN200 06/M04 A3003 RMK AO2 SLP170 T00611039 401670056
Loading
Personal Weather Stations






























Interactive Weather Map New forecast layout! Learn more

10-Day Weather Forecast

Advertisements
Track Severe Weather on mobile